createdAt,value
2022-11-07T00:01:09.936Z,2.91
2022-11-07T00:03:36.237Z,2.96
2022-11-07T00:06:02.551Z,2.91
2022-11-07T00:08:28.842Z,2.85
2022-11-07T00:10:55.127Z,3.10
2022-11-07T00:13:21.450Z,3.12
2022-11-07T00:15:47.751Z,3.07
2022-11-07T00:18:14.054Z,3.16
2022-11-07T00:20:40.367Z,3.29
2022-11-07T00:23:06.668Z,3.17
2022-11-07T00:25:32.971Z,3.10
2022-11-07T00:27:59.290Z,3.05
2022-11-07T00:30:25.601Z,3.23
2022-11-07T00:32:55.199Z,3.23
2022-11-07T00:35:23.988Z,2.79
2022-11-07T00:37:50.288Z,2.97
2022-11-07T00:40:16.602Z,2.89
2022-11-07T00:42:42.912Z,2.73
2022-11-07T00:45:09.224Z,2.91
2022-11-07T00:47:35.516Z,3.09
2022-11-07T00:50:01.833Z,2.92
2022-11-07T00:52:28.135Z,2.84
2022-11-07T00:54:54.431Z,2.81
2022-11-07T00:57:20.735Z,2.46
2022-11-07T00:59:47.035Z,1.81
2022-11-07T01:02:13.394Z,1.88
2022-11-07T01:04:39.851Z,1.71
2022-11-07T01:07:06.159Z,1.67
2022-11-07T01:09:32.456Z,1.81
2022-11-07T01:11:58.763Z,1.96
2022-11-07T01:14:25.050Z,1.94
2022-11-07T01:16:51.342Z,1.95
2022-11-07T01:19:17.641Z,2.09
2022-11-07T01:21:43.925Z,1.79
2022-11-07T01:24:10.211Z,2.00
2022-11-07T01:26:36.531Z,2.08
2022-11-07T01:29:02.810Z,1.92
2022-11-07T01:31:29.096Z,1.85
2022-11-07T01:33:55.411Z,1.58
2022-11-07T01:36:21.702Z,1.79
2022-11-07T01:38:47.991Z,1.79
2022-11-07T01:41:14.303Z,1.74
2022-11-07T01:43:40.590Z,1.84
2022-11-07T01:46:07.001Z,1.98
2022-11-07T01:48:33.304Z,1.92
2022-11-07T01:50:59.598Z,1.92
2022-11-07T01:53:25.880Z,2.09
2022-11-07T01:55:52.195Z,1.73
2022-11-07T01:58:18.482Z,1.97
2022-11-07T02:00:44.780Z,1.79
2022-11-07T02:03:11.145Z,1.70
2022-11-07T02:05:37.483Z,1.91
2022-11-07T02:08:03.779Z,2.24
2022-11-07T02:10:30.133Z,2.29
2022-11-07T02:12:56.418Z,2.08
2022-11-07T02:15:22.698Z,1.78
2022-11-07T02:17:48.994Z,1.90
2022-11-07T02:20:15.277Z,2.02
2022-11-07T02:22:41.566Z,2.04
2022-11-07T02:25:07.872Z,1.91
2022-11-07T02:27:34.167Z,1.56
2022-11-07T02:30:00.462Z,1.69
2022-11-07T02:32:26.766Z,1.47
2022-11-07T02:34:53.050Z,1.54
2022-11-07T02:37:19.343Z,1.67
2022-11-07T02:39:45.655Z,1.50
2022-11-07T02:42:11.946Z,1.64
2022-11-07T02:44:38.231Z,1.69
2022-11-07T02:47:04.531Z,1.60
2022-11-07T02:49:30.827Z,1.49
2022-11-07T02:51:57.115Z,1.54
2022-11-07T02:54:23.421Z,1.38
2022-11-07T02:56:49.708Z,1.34
2022-11-07T02:59:16.000Z,1.44
2022-11-07T03:01:42.418Z,1.30
2022-11-07T03:04:08.790Z,1.44
2022-11-07T03:06:35.079Z,1.53
2022-11-07T03:09:01.384Z,1.39
2022-11-07T03:11:27.678Z,1.34
2022-11-07T03:13:53.957Z,1.58
2022-11-07T03:16:20.303Z,1.53
2022-11-07T03:18:46.595Z,1.55
2022-11-07T03:21:12.894Z,1.55
2022-11-07T03:23:39.198Z,1.60
2022-11-07T03:26:05.498Z,1.67
2022-11-07T03:28:31.801Z,1.65
2022-11-07T03:30:58.106Z,1.54
2022-11-07T03:33:24.385Z,1.69
2022-11-07T03:35:50.662Z,1.54
2022-11-07T03:38:16.975Z,1.64
2022-11-07T03:40:43.273Z,1.71
2022-11-07T03:43:09.558Z,1.54
2022-11-07T03:45:35.871Z,1.53
2022-11-07T03:48:02.164Z,1.41
2022-11-07T03:50:28.457Z,1.38
2022-11-07T03:52:54.759Z,1.36
2022-11-07T03:55:21.058Z,1.64
2022-11-07T03:57:47.354Z,1.25
2022-11-07T04:00:13.668Z,1.34
2022-11-07T04:02:40.068Z,1.46
2022-11-07T04:05:06.488Z,1.54
2022-11-07T04:07:32.821Z,1.50
2022-11-07T04:09:59.117Z,1.72
2022-11-07T04:12:25.416Z,1.87
2022-11-07T04:14:51.732Z,1.98
2022-11-07T04:17:18.028Z,2.15
2022-11-07T04:19:44.324Z,2.11
2022-11-07T04:22:10.753Z,2.22
2022-11-07T04:24:40.309Z,2.07
2022-11-07T04:27:11.023Z,2.12
2022-11-07T04:29:37.528Z,2.34
2022-11-07T04:32:03.867Z,2.55
2022-11-07T04:34:30.182Z,2.25
2022-11-07T04:36:56.477Z,2.16
2022-11-07T04:39:22.767Z,2.03
2022-11-07T04:41:49.068Z,2.07
2022-11-07T04:44:15.378Z,2.00
2022-11-07T04:46:41.695Z,1.81
2022-11-07T04:49:08.011Z,1.87
2022-11-07T04:51:34.308Z,1.86
2022-11-07T04:54:00.607Z,1.68
2022-11-07T04:56:31.815Z,1.85
2022-11-07T04:59:00.524Z,1.55
2022-11-07T05:01:26.885Z,1.31
2022-11-07T05:03:53.201Z,1.20
2022-11-07T05:06:19.499Z,1.13
2022-11-07T05:08:45.816Z,1.34
2022-11-07T05:11:12.110Z,1.21
2022-11-07T05:13:38.397Z,1.24
2022-11-07T05:16:04.714Z,1.32
2022-11-07T05:18:31.007Z,1.47
2022-11-07T05:20:57.299Z,1.28
2022-11-07T05:23:23.662Z,1.33
2022-11-07T05:25:49.967Z,1.66
2022-11-07T05:28:16.271Z,1.92
2022-11-07T05:31:53.937Z,1.71
2022-11-07T05:34:20.236Z,1.87
2022-11-07T05:36:46.527Z,2.27
2022-11-07T05:39:12.857Z,2.18
2022-11-07T05:41:39.164Z,1.84
2022-11-07T05:44:05.471Z,1.85
2022-11-07T05:46:31.771Z,2.03
2022-11-07T05:49:00.947Z,2.13
2022-11-07T05:51:27.642Z,1.83
2022-11-07T05:53:53.955Z,1.81
2022-11-07T05:56:20.244Z,1.59
2022-11-07T05:58:46.552Z,1.59
2022-11-07T06:01:12.867Z,1.79
2022-11-07T06:03:39.159Z,1.79
2022-11-07T06:06:05.661Z,1.52
2022-11-07T06:08:31.965Z,1.54
2022-11-07T06:10:58.247Z,1.47
2022-11-07T06:13:24.525Z,1.43
2022-11-07T06:15:50.923Z,1.55
2022-11-07T06:18:17.209Z,1.34
2022-11-07T06:20:43.495Z,1.41
2022-11-07T06:23:09.798Z,1.36
2022-11-07T06:25:36.079Z,1.51
2022-11-07T06:28:02.366Z,1.39
2022-11-07T06:30:28.714Z,1.81
2022-11-07T06:32:55.015Z,2.16
2022-11-07T06:35:21.308Z,1.99
2022-11-07T06:37:47.611Z,2.02
2022-11-07T06:40:13.894Z,2.03
2022-11-07T06:42:40.179Z,1.87
2022-11-07T06:45:06.483Z,2.16
2022-11-07T06:47:32.770Z,2.24
2022-11-07T06:49:59.072Z,2.10
2022-11-07T06:52:25.392Z,2.41
2022-11-07T06:54:51.680Z,2.26
2022-11-07T06:57:17.963Z,2.26
2022-11-07T06:59:49.018Z,2.36
2022-11-07T07:02:30.874Z,2.19
2022-11-07T07:05:04.156Z,2.17
2022-11-07T07:07:30.456Z,2.26
2022-11-07T07:09:56.764Z,2.40
2022-11-07T07:17:31.594Z,2.15
2022-11-07T07:19:57.876Z,2.30
2022-11-07T07:22:24.155Z,2.24
2022-11-07T07:24:50.455Z,2.29
2022-11-07T07:27:16.756Z,2.14
2022-11-07T07:29:43.065Z,2.22
2022-11-07T07:32:09.388Z,2.34
2022-11-07T07:34:35.692Z,2.14
2022-11-07T07:37:01.972Z,1.98
2022-11-07T07:39:28.270Z,2.13
2022-11-07T07:41:54.572Z,1.97
2022-11-07T07:44:20.859Z,2.14
2022-11-07T07:46:47.164Z,2.06
2022-11-07T07:49:13.449Z,1.96
2022-11-07T07:51:39.729Z,2.12
2022-11-07T07:54:06.032Z,2.15
2022-11-07T07:56:32.317Z,2.05
2022-11-07T07:58:58.593Z,1.96
2022-11-07T08:01:25.039Z,1.99
2022-11-07T08:04:01.412Z,2.00
2022-11-07T08:06:28.747Z,1.94
2022-11-07T08:08:55.036Z,2.17
2022-11-07T08:11:21.322Z,2.01
2022-11-07T08:13:47.639Z,2.10
2022-11-07T08:16:13.931Z,1.91
2022-11-07T08:18:40.215Z,1.99
2022-11-07T08:21:06.536Z,2.11
2022-11-07T08:23:33.084Z,2.03
2022-11-07T08:25:59.374Z,2.19
2022-11-07T08:28:25.676Z,2.35
2022-11-07T08:30:51.957Z,2.21
2022-11-07T08:33:18.453Z,2.19
2022-11-07T08:35:45.024Z,2.22
2022-11-07T08:38:11.319Z,1.97
2022-11-07T08:40:37.607Z,1.96
2022-11-07T08:43:03.908Z,2.15
2022-11-07T08:45:30.186Z,1.96
2022-11-07T08:47:56.491Z,1.96
2022-11-07T08:50:22.797Z,2.07
2022-11-07T08:52:49.090Z,1.99
2022-11-07T08:55:15.398Z,2.13
2022-11-07T08:57:41.704Z,2.03
2022-11-07T09:00:07.989Z,2.18
2022-11-07T09:05:20.568Z,2.03
2022-11-07T09:07:46.868Z,2.14
2022-11-07T09:10:13.156Z,2.27
2022-11-07T09:12:39.460Z,2.23
2022-11-07T09:15:05.749Z,2.17
2022-11-07T09:17:32.040Z,2.09
2022-11-07T09:19:58.372Z,2.22
2022-11-07T09:22:24.668Z,1.99
2022-11-07T09:24:50.958Z,2.00
2022-11-07T09:27:17.254Z,2.01
2022-11-07T09:29:43.543Z,1.88
2022-11-07T09:32:38.208Z,1.93
2022-11-07T09:34:59.430Z,1.69
2022-11-07T09:37:29.961Z,1.83
2022-11-07T09:39:56.307Z,2.15
2022-11-07T09:42:22.593Z,1.98
2022-11-07T09:44:48.886Z,1.99
2022-11-07T09:47:15.210Z,2.11
2022-11-07T09:49:41.510Z,2.01
2022-11-07T09:52:07.809Z,1.79
2022-11-07T09:54:34.127Z,1.66
2022-11-07T09:57:00.427Z,1.87
2022-11-07T09:59:26.729Z,1.90
2022-11-07T10:01:53.102Z,1.77
2022-11-07T10:04:27.236Z,1.91
2022-11-07T10:06:53.778Z,1.87
2022-11-07T10:09:20.083Z,1.82
2022-11-07T10:11:46.378Z,1.83
2022-11-07T10:14:12.690Z,1.86
2022-11-07T10:16:39.000Z,1.96
2022-11-07T10:19:05.299Z,2.01
2022-11-07T10:21:37.635Z,2.00
2022-11-07T10:24:04.921Z,1.98
2022-11-07T10:28:02.716Z,1.90
2022-11-07T10:30:29.008Z,1.92
2022-11-07T10:32:55.304Z,2.02
2022-11-07T10:35:21.609Z,1.84
2022-11-07T10:37:47.903Z,2.02
2022-11-07T10:40:14.195Z,1.96
2022-11-07T10:42:40.543Z,1.99
2022-11-07T10:45:06.840Z,2.09
2022-11-07T10:47:33.560Z,1.86
2022-11-07T10:49:59.940Z,1.97
2022-11-07T10:52:26.236Z,2.22
2022-11-07T10:54:52.584Z,1.81
2022-11-07T10:57:18.896Z,1.79
2022-11-07T10:59:45.197Z,1.88
2022-11-07T11:02:11.536Z,1.86
2022-11-07T11:04:37.881Z,1.86
2022-11-07T11:07:04.190Z,1.86
2022-11-07T11:09:30.486Z,1.89
2022-11-07T11:11:56.811Z,1.57
2022-11-07T11:14:23.100Z,1.84
2022-11-07T11:16:49.432Z,1.80
2022-11-07T11:19:15.900Z,1.69
2022-11-07T11:21:42.225Z,1.89
2022-11-07T11:24:08.527Z,1.63
2022-11-07T11:26:34.831Z,1.76
2022-11-07T11:29:01.126Z,1.70
2022-11-07T11:31:27.420Z,1.60
2022-11-07T11:33:53.736Z,1.55
2022-11-07T11:36:20.034Z,1.57
2022-11-07T11:38:46.337Z,1.66
2022-11-07T11:41:12.654Z,1.46
2022-11-07T11:43:38.954Z,1.56
2022-11-07T11:46:05.249Z,1.51
2022-11-07T11:48:31.616Z,1.67
2022-11-07T11:50:57.978Z,1.61
2022-11-07T11:53:24.285Z,1.57
2022-11-07T11:55:52.338Z,1.28
2022-11-07T11:58:18.813Z,1.38
2022-11-07T12:00:45.103Z,1.37
2022-11-07T12:03:11.419Z,1.41
2022-11-07T12:05:37.713Z,1.51
2022-11-07T12:08:04.011Z,1.69
2022-11-07T12:10:30.327Z,1.68
2022-11-07T12:12:56.627Z,1.42
2022-11-07T12:15:22.938Z,1.65
2022-11-07T12:17:49.264Z,1.51
2022-11-07T12:20:15.555Z,1.65
2022-11-07T12:22:41.834Z,1.45
2022-11-07T12:25:08.138Z,1.86
2022-11-07T12:27:34.418Z,1.47
2022-11-07T12:30:00.699Z,1.53
2022-11-07T12:32:27.000Z,1.47
2022-11-07T12:34:53.277Z,1.51
2022-11-07T12:37:19.555Z,1.78
2022-11-07T12:39:45.859Z,1.65
2022-11-07T12:42:12.155Z,1.38
2022-11-07T12:44:38.463Z,1.40
2022-11-07T12:47:04.772Z,1.80
2022-11-07T12:49:31.061Z,1.57
2022-11-07T12:51:57.369Z,1.80
2022-11-07T12:54:23.723Z,1.63
2022-11-07T12:56:50.013Z,1.54
2022-11-07T12:59:16.322Z,1.49
2022-11-07T13:01:46.025Z,1.70
2022-11-07T13:04:12.462Z,1.90
2022-11-07T13:06:38.764Z,1.41
2022-11-07T13:09:05.081Z,1.54
2022-11-07T13:11:31.368Z,1.37
2022-11-07T13:13:57.664Z,1.61
2022-11-07T13:16:23.982Z,1.46
2022-11-07T13:18:50.272Z,1.36
2022-11-07T13:21:16.566Z,1.28
2022-11-07T13:23:42.876Z,1.57
2022-11-07T13:26:26.397Z,1.51
2022-11-07T13:28:55.471Z,1.40
2022-11-07T13:31:21.773Z,1.50
2022-11-07T13:33:48.073Z,1.40
2022-11-07T13:36:14.500Z,1.40
2022-11-07T13:38:40.797Z,1.68
2022-11-07T13:41:07.088Z,1.55
2022-11-07T13:43:33.426Z,1.50
2022-11-07T13:45:59.724Z,1.51
2022-11-07T13:48:26.015Z,1.53
2022-11-07T13:50:52.332Z,1.62
2022-11-07T13:53:18.953Z,1.40
2022-11-07T13:55:45.355Z,1.27
2022-11-07T13:58:11.711Z,1.46
2022-11-07T14:00:38.076Z,1.56
2022-11-07T14:03:04.445Z,1.40
2022-11-07T14:05:30.852Z,1.19
2022-11-07T14:07:57.149Z,1.32
2022-11-07T14:10:23.482Z,1.51
2022-11-07T14:12:49.796Z,1.39
2022-11-07T14:15:16.096Z,1.40
2022-11-07T14:17:42.383Z,1.08
2022-11-07T14:20:08.695Z,1.13
2022-11-07T14:22:34.987Z,0.97
2022-11-07T14:25:01.280Z,1.15
2022-11-07T14:27:27.613Z,1.17
2022-11-07T14:29:53.897Z,1.23
2022-11-07T14:32:20.187Z,1.24
2022-11-07T14:34:46.489Z,1.23
2022-11-07T14:37:12.778Z,1.27
2022-11-07T14:39:39.063Z,1.11
2022-11-07T14:42:05.377Z,1.26
2022-11-07T14:44:41.951Z,1.28
2022-11-07T14:47:17.948Z,1.29
2022-11-07T14:49:44.253Z,1.18
2022-11-07T14:52:14.026Z,1.16
2022-11-07T14:54:42.743Z,1.26
2022-11-07T14:57:09.037Z,1.29
2022-11-07T14:59:35.335Z,1.45
2022-11-07T15:02:01.766Z,1.39
2022-11-07T15:04:28.174Z,1.25
2022-11-07T15:06:54.471Z,1.38
2022-11-07T15:09:20.779Z,1.56
2022-11-07T15:11:47.084Z,1.40
2022-11-07T15:14:13.383Z,1.29
2022-11-07T15:16:39.693Z,1.42
2022-11-07T15:19:05.988Z,1.39
2022-11-07T15:21:32.287Z,1.44
2022-11-07T15:23:58.593Z,1.35
2022-11-07T15:26:24.890Z,1.54
2022-11-07T15:28:51.212Z,1.79
2022-11-07T15:31:17.533Z,1.71
2022-11-07T15:33:43.832Z,1.58
2022-11-07T15:36:10.134Z,1.72
2022-11-07T15:38:36.461Z,1.63
2022-11-07T15:41:02.757Z,1.61
2022-11-07T15:43:29.062Z,1.55
2022-11-07T15:45:55.375Z,1.48
2022-11-07T15:48:21.670Z,1.52
2022-11-07T15:50:47.964Z,1.62
2022-11-07T15:53:14.285Z,1.96
2022-11-07T15:55:40.654Z,1.92
2022-11-07T15:58:06.958Z,2.80
2022-11-07T16:00:33.277Z,2.54
2022-11-07T16:02:59.644Z,1.97
2022-11-07T16:05:26.026Z,1.68
2022-11-07T16:07:52.461Z,1.90
2022-11-07T16:10:18.751Z,1.96
2022-11-07T16:12:45.045Z,1.87
2022-11-07T16:15:11.367Z,2.18
2022-11-07T16:17:37.684Z,1.72
2022-11-07T16:20:03.976Z,1.66
2022-11-07T16:22:30.281Z,1.64
2022-11-07T16:24:56.575Z,1.80
2022-11-07T16:27:22.862Z,1.82
2022-11-07T16:29:49.195Z,1.40
2022-11-07T16:32:18.294Z,1.30
2022-11-07T16:34:45.347Z,1.24
2022-11-07T16:37:11.716Z,1.18
2022-11-07T16:39:38.013Z,1.55
2022-11-07T16:42:04.303Z,1.25
2022-11-07T16:44:30.882Z,1.31
2022-11-07T16:46:57.204Z,1.04
2022-11-07T16:49:23.700Z,1.07
2022-11-07T16:51:50.004Z,1.16
2022-11-07T16:54:16.348Z,1.15
2022-11-07T16:56:42.646Z,1.37
2022-11-07T16:59:09.098Z,1.40
2022-11-07T17:01:35.544Z,1.21
2022-11-07T17:04:02.145Z,1.39
2022-11-07T17:06:28.535Z,1.47
2022-11-07T17:08:59.909Z,1.32
2022-11-07T17:11:30.515Z,1.51
2022-11-07T17:13:56.810Z,2.16
2022-11-07T17:16:23.122Z,3.28
2022-11-07T17:18:49.435Z,2.71
2022-11-07T17:21:15.725Z,2.30
2022-11-07T17:23:42.023Z,2.15
2022-11-07T17:26:08.342Z,2.38
2022-11-07T17:28:34.638Z,2.12
2022-11-07T17:31:00.931Z,1.97
2022-11-07T17:33:27.243Z,1.80
2022-11-07T17:35:53.529Z,1.84
2022-11-07T17:38:20.094Z,1.97
2022-11-07T17:40:46.655Z,2.13
2022-11-07T17:43:13.075Z,1.96
2022-11-07T17:45:39.496Z,1.87
2022-11-07T17:48:05.822Z,2.00
2022-11-07T17:50:32.127Z,2.57
2022-11-07T17:52:58.439Z,3.42
2022-11-07T17:55:24.751Z,4.06
2022-11-07T17:57:51.042Z,3.07
2022-11-07T18:00:17.339Z,3.69
2022-11-07T18:02:43.814Z,3.01
2022-11-07T18:05:10.188Z,2.86
2022-11-07T18:07:36.474Z,2.79
2022-11-07T18:10:02.787Z,2.45
2022-11-07T18:12:29.805Z,1.95
2022-11-07T18:14:56.095Z,1.67
2022-11-07T18:17:22.407Z,1.63
2022-11-07T18:19:48.700Z,2.28
2022-11-07T18:22:15.001Z,1.92
2022-11-07T18:24:41.316Z,1.87
2022-11-07T18:27:10.473Z,2.37
2022-11-07T18:29:37.124Z,2.65
2022-11-07T18:32:03.440Z,2.94
2022-11-07T18:34:29.720Z,3.19
2022-11-07T18:36:56.007Z,2.34
2022-11-07T18:39:22.319Z,1.83
2022-11-07T18:41:48.611Z,1.77
2022-11-07T18:44:14.913Z,1.52
2022-11-07T18:46:41.227Z,1.54
2022-11-07T18:49:07.518Z,1.81
2022-11-07T18:51:33.815Z,1.54
2022-11-07T18:54:00.151Z,1.59
2022-11-07T18:56:26.452Z,1.48
2022-11-07T18:58:52.747Z,1.57
2022-11-07T19:01:19.137Z,2.14
2022-11-07T19:03:45.466Z,2.73
2022-11-07T19:06:11.771Z,2.03
2022-11-07T19:08:38.084Z,1.93
2022-11-07T19:11:04.375Z,1.85
2022-11-07T19:13:30.669Z,1.60
2022-11-07T19:15:57.021Z,1.82
2022-11-07T19:18:23.316Z,1.79
2022-11-07T19:20:49.620Z,1.54
2022-11-07T19:23:16.301Z,1.56
2022-11-07T19:25:42.841Z,1.65
2022-11-07T19:28:09.127Z,1.66
2022-11-07T19:30:35.447Z,1.64
2022-11-07T19:33:01.736Z,1.76
2022-11-07T19:35:28.028Z,2.02
2022-11-07T19:37:54.335Z,1.79
2022-11-07T19:40:20.625Z,1.71
2022-11-07T19:42:46.921Z,1.82
2022-11-07T19:45:13.238Z,1.73
2022-11-07T19:47:39.537Z,1.97
2022-11-07T19:50:05.859Z,2.12
2022-11-07T19:52:32.181Z,2.37
2022-11-07T19:54:58.475Z,2.11
2022-11-07T19:57:24.773Z,1.95
2022-11-07T19:59:51.091Z,2.15
2022-11-07T20:02:32.197Z,2.07
2022-11-07T20:04:59.584Z,2.04
2022-11-07T20:07:25.871Z,1.89
2022-11-07T20:09:52.160Z,1.89
2022-11-07T20:12:18.472Z,1.64
2022-11-07T20:14:44.773Z,1.85
2022-11-07T20:17:11.061Z,1.65
2022-11-07T20:19:37.411Z,1.68
2022-11-07T20:22:03.711Z,2.92
2022-11-07T20:24:30.010Z,3.13
2022-11-07T20:26:56.337Z,2.72
2022-11-07T20:29:22.636Z,2.59
2022-11-07T20:31:48.923Z,2.89
2022-11-07T20:34:15.226Z,3.35
2022-11-07T20:36:41.519Z,3.59
2022-11-07T20:39:07.811Z,2.90
2022-11-07T20:41:34.109Z,2.51
2022-11-07T20:44:00.389Z,2.41
2022-11-07T20:46:26.670Z,2.10
2022-11-07T20:48:52.964Z,2.23
2022-11-07T20:51:19.244Z,2.17
2022-11-07T20:53:49.726Z,1.88
2022-11-07T20:56:16.895Z,2.57
2022-11-07T20:58:43.227Z,2.86
2022-11-07T21:01:09.607Z,2.21
2022-11-07T21:03:35.980Z,1.87
2022-11-07T21:06:02.271Z,2.30
2022-11-07T21:08:30.777Z,2.64
2022-11-07T21:11:00.876Z,2.85
2022-11-07T21:13:27.167Z,2.85
2022-11-07T21:15:53.463Z,2.88
2022-11-07T21:18:19.771Z,2.49
2022-11-07T21:20:46.060Z,2.56
2022-11-07T21:23:12.361Z,2.64
2022-11-07T21:25:38.725Z,2.30
2022-11-07T21:28:05.009Z,2.48
2022-11-07T21:30:31.305Z,2.42
2022-11-07T21:32:57.643Z,2.47
2022-11-07T21:35:24.052Z,2.30
2022-11-07T21:37:50.335Z,2.06
2022-11-07T21:40:16.639Z,1.89
2022-11-07T21:42:42.929Z,2.14
2022-11-07T21:45:09.222Z,2.06
2022-11-07T21:47:35.541Z,2.09
2022-11-07T21:50:09.490Z,2.47
2022-11-07T21:52:44.333Z,3.47
2022-11-07T21:55:10.640Z,3.48
2022-11-07T21:57:36.931Z,3.38
2022-11-07T22:00:03.239Z,2.55
2022-11-07T22:02:29.557Z,2.18
2022-11-07T22:04:55.898Z,2.14
2022-11-07T22:07:22.214Z,2.24
2022-11-07T22:09:48.500Z,1.91
2022-11-07T22:12:14.805Z,2.09
2022-11-07T22:14:41.121Z,2.33
2022-11-07T22:17:07.426Z,2.18
2022-11-07T22:19:33.711Z,2.19
2022-11-07T22:22:00.043Z,2.35
2022-11-07T22:24:26.340Z,2.31
2022-11-07T22:26:52.635Z,2.51
2022-11-07T22:29:18.991Z,2.22
2022-11-07T22:31:45.289Z,2.46
2022-11-07T22:34:11.595Z,2.37
2022-11-07T22:36:37.915Z,2.96
2022-11-07T22:39:04.205Z,2.98
2022-11-07T22:41:30.502Z,2.84
2022-11-07T22:43:56.798Z,2.85
2022-11-07T22:46:23.096Z,3.23
2022-11-07T22:48:49.401Z,3.12
2022-11-07T22:51:15.712Z,2.80
2022-11-07T22:53:42.000Z,2.73
2022-11-07T22:56:08.291Z,2.99
2022-11-07T22:58:34.599Z,3.16
2022-11-07T23:01:00.897Z,3.29
2022-11-07T23:03:27.201Z,3.30
2022-11-07T23:05:53.527Z,3.45
2022-11-07T23:08:20.136Z,3.53
2022-11-07T23:10:46.613Z,3.15
2022-11-07T23:13:12.931Z,3.10
2022-11-07T23:15:39.223Z,3.17
2022-11-07T23:18:05.519Z,3.40
2022-11-07T23:20:31.920Z,3.34
2022-11-07T23:22:58.228Z,3.55
2022-11-07T23:25:24.519Z,3.45
2022-11-07T23:27:50.833Z,3.21
2022-11-07T23:30:17.123Z,2.97
2022-11-07T23:32:43.420Z,3.12
2022-11-07T23:35:09.772Z,3.28
2022-11-07T23:37:36.060Z,3.87
2022-11-07T23:40:02.356Z,3.70
2022-11-07T23:42:28.674Z,4.12
2022-11-07T23:44:54.972Z,3.99
2022-11-07T23:47:21.264Z,3.54
2022-11-07T23:49:47.572Z,3.62
2022-11-07T23:52:13.859Z,3.62
2022-11-07T23:54:40.152Z,3.67
2022-11-07T23:57:06.480Z,3.89
2022-11-07T23:59:32.774Z,3.58
